sensor_id;sensor_type;location;lat;lon;timestamp;P1;durP1;ratioP1;P2;durP2;ratioP2
54261;SDS011;40174;52.364;6.452;2023-07-09T00:01:46;9.20;;;3.90;;
54261;SDS011;40174;52.364;6.452;2023-07-09T00:04:12;8.43;;;3.65;;
54261;SDS011;40174;52.364;6.452;2023-07-09T00:06:39;8.30;;;4.03;;
54261;SDS011;40174;52.364;6.452;2023-07-09T00:09:09;12.52;;;4.03;;
54261;SDS011;40174;52.364;6.452;2023-07-09T00:11:39;11.55;;;4.45;;
54261;SDS011;40174;52.364;6.452;2023-07-09T00:14:07;10.10;;;4.57;;
54261;SDS011;40174;52.364;6.452;2023-07-09T00:16:34;9.00;;;4.03;;
54261;SDS011;40174;52.364;6.452;2023-07-09T00:19:03;7.90;;;4.03;;
54261;SDS011;40174;52.364;6.452;2023-07-09T00:21:31;9.90;;;4.45;;
54261;SDS011;40174;52.364;6.452;2023-07-09T00:23:59;8.82;;;4.13;;
54261;SDS011;40174;52.364;6.452;2023-07-09T00:26:30;11.57;;;4.65;;
54261;SDS011;40174;52.364;6.452;2023-07-09T00:28:57;9.63;;;4.50;;
54261;SDS011;40174;52.364;6.452;2023-07-09T00:31:25;9.88;;;4.50;;
54261;SDS011;40174;52.364;6.452;2023-07-09T00:33:52;12.20;;;4.53;;
54261;SDS011;40174;52.364;6.452;2023-07-09T00:36:25;10.40;;;4.40;;
54261;SDS011;40174;52.364;6.452;2023-07-09T00:38:53;12.05;;;4.97;;
54261;SDS011;40174;52.364;6.452;2023-07-09T00:41:21;8.40;;;4.15;;
54261;SDS011;40174;52.364;6.452;2023-07-09T00:43:50;9.73;;;4.28;;
54261;SDS011;40174;52.364;6.452;2023-07-09T00:49:29;13.25;;;4.65;;
54261;SDS011;40174;52.364;6.452;2023-07-09T00:52:00;14.48;;;5.35;;
54261;SDS011;40174;52.364;6.452;2023-07-09T00:54:30;12.02;;;4.60;;
54261;SDS011;40174;52.364;6.452;2023-07-09T00:57:04;15.35;;;4.47;;
54261;SDS011;40174;52.364;6.452;2023-07-09T00:59:37;10.38;;;4.65;;
54261;SDS011;40174;52.364;6.452;2023-07-09T01:02:06;11.43;;;4.53;;
54261;SDS011;40174;52.364;6.452;2023-07-09T01:04:34;9.25;;;4.28;;
54261;SDS011;40174;52.364;6.452;2023-07-09T01:07:02;7.40;;;3.83;;
54261;SDS011;40174;52.364;6.452;2023-07-09T01:09:29;10.02;;;4.05;;
54261;SDS011;40174;52.364;6.452;2023-07-09T01:11:56;11.77;;;4.47;;
54261;SDS011;40174;52.364;6.452;2023-07-09T01:14:26;8.30;;;3.95;;
54261;SDS011;40174;52.364;6.452;2023-07-09T01:16:55;9.65;;;4.00;;
54261;SDS011;40174;52.364;6.452;2023-07-09T01:19:27;7.95;;;3.72;;
54261;SDS011;40174;52.364;6.452;2023-07-09T01:21:56;8.55;;;4.07;;
54261;SDS011;40174;52.364;6.452;2023-07-09T01:27:16;13.73;;;5.05;;
54261;SDS011;40174;52.364;6.452;2023-07-09T01:29:44;9.55;;;4.07;;
54261;SDS011;40174;52.364;6.452;2023-07-09T01:32:14;11.02;;;4.95;;
54261;SDS011;40174;52.364;6.452;2023-07-09T01:34:43;11.73;;;4.45;;
54261;SDS011;40174;52.364;6.452;2023-07-09T01:41:01;10.73;;;4.83;;
54261;SDS011;40174;52.364;6.452;2023-07-09T01:43:28;8.68;;;4.22;;
54261;SDS011;40174;52.364;6.452;2023-07-09T01:45:55;11.30;;;4.65;;
54261;SDS011;40174;52.364;6.452;2023-07-09T01:48:23;10.07;;;4.35;;
54261;SDS011;40174;52.364;6.452;2023-07-09T01:50:50;11.45;;;4.65;;
54261;SDS011;40174;52.364;6.452;2023-07-09T01:53:19;10.50;;;4.57;;
54261;SDS011;40174;52.364;6.452;2023-07-09T01:55:49;10.23;;;4.28;;
54261;SDS011;40174;52.364;6.452;2023-07-09T01:58:17;11.40;;;4.68;;
54261;SDS011;40174;52.364;6.452;2023-07-09T02:00:44;14.73;;;4.93;;
54261;SDS011;40174;52.364;6.452;2023-07-09T02:03:11;8.65;;;4.43;;
54261;SDS011;40174;52.364;6.452;2023-07-09T02:05:40;9.30;;;4.68;;
54261;SDS011;40174;52.364;6.452;2023-07-09T02:08:07;11.25;;;4.95;;
54261;SDS011;40174;52.364;6.452;2023-07-09T02:10:33;10.27;;;4.43;;
54261;SDS011;40174;52.364;6.452;2023-07-09T02:13:00;9.27;;;4.07;;
54261;SDS011;40174;52.364;6.452;2023-07-09T02:15:28;9.65;;;4.03;;
54261;SDS011;40174;52.364;6.452;2023-07-09T02:17:56;11.27;;;4.88;;
54261;SDS011;40174;52.364;6.452;2023-07-09T02:20:24;9.40;;;4.28;;
54261;SDS011;40174;52.364;6.452;2023-07-09T02:22:51;11.60;;;4.40;;
54261;SDS011;40174;52.364;6.452;2023-07-09T02:25:17;10.70;;;4.38;;
54261;SDS011;40174;52.364;6.452;2023-07-09T02:27:44;10.63;;;4.47;;
54261;SDS011;40174;52.364;6.452;2023-07-09T02:30:11;10.23;;;3.90;;
54261;SDS011;40174;52.364;6.452;2023-07-09T02:32:39;8.05;;;3.83;;
54261;SDS011;40174;52.364;6.452;2023-07-09T02:35:07;11.32;;;4.13;;
54261;SDS011;40174;52.364;6.452;2023-07-09T02:37:34;10.13;;;4.13;;
54261;SDS011;40174;52.364;6.452;2023-07-09T02:40:00;8.55;;;3.97;;
54261;SDS011;40174;52.364;6.452;2023-07-09T02:42:29;8.57;;;3.42;;
54261;SDS011;40174;52.364;6.452;2023-07-09T02:44:55;7.90;;;4.03;;
54261;SDS011;40174;52.364;6.452;2023-07-09T02:47:24;9.80;;;4.35;;
54261;SDS011;40174;52.364;6.452;2023-07-09T02:49:53;12.65;;;5.07;;
54261;SDS011;40174;52.364;6.452;2023-07-09T02:52:20;10.70;;;4.47;;
54261;SDS011;40174;52.364;6.452;2023-07-09T02:54:47;9.60;;;4.53;;
54261;SDS011;40174;52.364;6.452;2023-07-09T02:57:13;10.02;;;5.10;;
54261;SDS011;40174;52.364;6.452;2023-07-09T02:59:40;8.60;;;3.90;;
54261;SDS011;40174;52.364;6.452;2023-07-09T03:02:07;8.85;;;4.25;;
54261;SDS011;40174;52.364;6.452;2023-07-09T03:04:33;11.27;;;5.55;;
54261;SDS011;40174;52.364;6.452;2023-07-09T03:07:01;14.63;;;5.05;;
54261;SDS011;40174;52.364;6.452;2023-07-09T03:09:28;12.07;;;4.70;;
54261;SDS011;40174;52.364;6.452;2023-07-09T03:11:55;12.93;;;4.50;;
54261;SDS011;40174;52.364;6.452;2023-07-09T03:14:22;14.15;;;4.32;;
54261;SDS011;40174;52.364;6.452;2023-07-09T03:16:49;12.80;;;4.93;;
54261;SDS011;40174;52.364;6.452;2023-07-09T03:19:16;9.90;;;4.53;;
54261;SDS011;40174;52.364;6.452;2023-07-09T03:21:43;12.88;;;4.60;;
54261;SDS011;40174;52.364;6.452;2023-07-09T03:24:11;9.25;;;4.40;;
54261;SDS011;40174;52.364;6.452;2023-07-09T03:26:43;11.32;;;4.45;;
54261;SDS011;40174;52.364;6.452;2023-07-09T03:29:10;8.15;;;4.47;;
54261;SDS011;40174;52.364;6.452;2023-07-09T03:31:37;9.70;;;5.05;;
54261;SDS011;40174;52.364;6.452;2023-07-09T03:34:03;10.52;;;4.93;;
54261;SDS011;40174;52.364;6.452;2023-07-09T03:36:30;13.30;;;4.20;;
54261;SDS011;40174;52.364;6.452;2023-07-09T03:38:57;9.80;;;4.55;;
54261;SDS011;40174;52.364;6.452;2023-07-09T03:41:25;9.48;;;4.18;;
54261;SDS011;40174;52.364;6.452;2023-07-09T03:43:52;12.07;;;4.72;;
54261;SDS011;40174;52.364;6.452;2023-07-09T03:46:18;10.45;;;3.90;;
54261;SDS011;40174;52.364;6.452;2023-07-09T03:48:45;8.68;;;3.97;;
54261;SDS011;40174;52.364;6.452;2023-07-09T03:51:12;10.70;;;4.38;;
54261;SDS011;40174;52.364;6.452;2023-07-09T03:53:38;9.52;;;4.57;;
54261;SDS011;40174;52.364;6.452;2023-07-09T03:56:05;11.57;;;4.32;;
54261;SDS011;40174;52.364;6.452;2023-07-09T03:58:33;9.70;;;4.28;;
54261;SDS011;40174;52.364;6.452;2023-07-09T04:01:01;9.73;;;4.50;;
54261;SDS011;40174;52.364;6.452;2023-07-09T04:03:28;9.18;;;4.75;;
54261;SDS011;40174;52.364;6.452;2023-07-09T04:05:55;11.40;;;4.80;;
54261;SDS011;40174;52.364;6.452;2023-07-09T04:08:21;10.80;;;4.88;;
54261;SDS011;40174;52.364;6.452;2023-07-09T04:10:48;11.55;;;4.78;;
54261;SDS011;40174;52.364;6.452;2023-07-09T04:13:15;9.18;;;4.18;;
54261;SDS011;40174;52.364;6.452;2023-07-09T04:15:43;10.60;;;4.38;;
54261;SDS011;40174;52.364;6.452;2023-07-09T04:18:10;10.55;;;4.93;;
54261;SDS011;40174;52.364;6.452;2023-07-09T04:20:36;10.70;;;4.35;;
54261;SDS011;40174;52.364;6.452;2023-07-09T04:23:03;9.00;;;4.30;;
54261;SDS011;40174;52.364;6.452;2023-07-09T04:25:32;7.95;;;4.03;;
54261;SDS011;40174;52.364;6.452;2023-07-09T04:27:59;7.97;;;4.20;;
54261;SDS011;40174;52.364;6.452;2023-07-09T04:30:26;9.02;;;4.70;;
54261;SDS011;40174;52.364;6.452;2023-07-09T04:32:54;10.68;;;5.45;;
54261;SDS011;40174;52.364;6.452;2023-07-09T04:35:20;11.88;;;5.35;;
54261;SDS011;40174;52.364;6.452;2023-07-09T04:37:47;12.02;;;5.40;;
54261;SDS011;40174;52.364;6.452;2023-07-09T04:40:13;10.10;;;5.13;;
54261;SDS011;40174;52.364;6.452;2023-07-09T04:42:40;11.02;;;4.90;;
54261;SDS011;40174;52.364;6.452;2023-07-09T04:45:08;13.27;;;5.68;;
54261;SDS011;40174;52.364;6.452;2023-07-09T04:47:36;9.80;;;4.80;;
54261;SDS011;40174;52.364;6.452;2023-07-09T04:50:06;13.68;;;4.78;;
54261;SDS011;40174;52.364;6.452;2023-07-09T04:52:34;10.50;;;5.50;;
54261;SDS011;40174;52.364;6.452;2023-07-09T04:55:01;10.93;;;5.45;;
54261;SDS011;40174;52.364;6.452;2023-07-09T04:57:28;15.82;;;5.55;;
54261;SDS011;40174;52.364;6.452;2023-07-09T04:59:54;14.15;;;5.15;;
54261;SDS011;40174;52.364;6.452;2023-07-09T05:02:21;11.23;;;5.20;;
54261;SDS011;40174;52.364;6.452;2023-07-09T05:04:48;15.88;;;5.63;;
54261;SDS011;40174;52.364;6.452;2023-07-09T05:07:16;13.07;;;6.40;;
54261;SDS011;40174;52.364;6.452;2023-07-09T05:09:43;12.98;;;6.00;;
54261;SDS011;40174;52.364;6.452;2023-07-09T05:12:09;12.88;;;5.82;;
54261;SDS011;40174;52.364;6.452;2023-07-09T05:14:36;12.95;;;5.82;;
54261;SDS011;40174;52.364;6.452;2023-07-09T05:17:03;13.13;;;6.22;;
54261;SDS011;40174;52.364;6.452;2023-07-09T05:19:30;13.73;;;6.15;;
54261;SDS011;40174;52.364;6.452;2023-07-09T05:21:57;16.88;;;6.93;;
54261;SDS011;40174;52.364;6.452;2023-07-09T05:24:25;12.07;;;6.15;;
54261;SDS011;40174;52.364;6.452;2023-07-09T05:26:52;12.68;;;6.22;;
54261;SDS011;40174;52.364;6.452;2023-07-09T05:29:18;12.50;;;5.53;;
54261;SDS011;40174;52.364;6.452;2023-07-09T05:31:45;10.93;;;5.80;;
54261;SDS011;40174;52.364;6.452;2023-07-09T05:34:11;12.07;;;5.85;;
54261;SDS011;40174;52.364;6.452;2023-07-09T05:36:38;11.02;;;5.60;;
54261;SDS011;40174;52.364;6.452;2023-07-09T05:39:05;12.85;;;6.25;;
54261;SDS011;40174;52.364;6.452;2023-07-09T05:41:33;12.05;;;5.45;;
54261;SDS011;40174;52.364;6.452;2023-07-09T05:44:00;10.55;;;5.63;;
54261;SDS011;40174;52.364;6.452;2023-07-09T05:46:27;12.25;;;5.00;;
54261;SDS011;40174;52.364;6.452;2023-07-09T05:48:54;12.73;;;5.05;;
54261;SDS011;40174;52.364;6.452;2023-07-09T05:51:20;13.65;;;5.55;;
54261;SDS011;40174;52.364;6.452;2023-07-09T05:53:49;11.18;;;5.70;;
54261;SDS011;40174;52.364;6.452;2023-07-09T05:56:16;11.40;;;5.18;;
54261;SDS011;40174;52.364;6.452;2023-07-09T05:58:44;13.75;;;5.75;;
54261;SDS011;40174;52.364;6.452;2023-07-09T06:01:10;11.13;;;4.95;;
54261;SDS011;40174;52.364;6.452;2023-07-09T06:03:37;12.68;;;5.82;;
54261;SDS011;40174;52.364;6.452;2023-07-09T06:06:04;10.52;;;5.60;;
54261;SDS011;40174;52.364;6.452;2023-07-09T06:08:31;13.90;;;5.28;;
54261;SDS011;40174;52.364;6.452;2023-07-09T06:11:00;11.88;;;5.53;;
54261;SDS011;40174;52.364;6.452;2023-07-09T06:13:28;13.02;;;5.50;;
54261;SDS011;40174;52.364;6.452;2023-07-09T06:15:57;14.60;;;5.45;;
54261;SDS011;40174;52.364;6.452;2023-07-09T06:18:25;11.15;;;4.72;;
54261;SDS011;40174;52.364;6.452;2023-07-09T06:20:54;11.30;;;4.97;;
54261;SDS011;40174;52.364;6.452;2023-07-09T06:23:22;10.65;;;4.90;;
54261;SDS011;40174;52.364;6.452;2023-07-09T06:25:49;10.30;;;4.47;;
54261;SDS011;40174;52.364;6.452;2023-07-09T06:28:18;10.23;;;4.60;;
54261;SDS011;40174;52.364;6.452;2023-07-09T06:30:46;11.63;;;4.85;;
54261;SDS011;40174;52.364;6.452;2023-07-09T06:33:15;9.45;;;4.57;;
54261;SDS011;40174;52.364;6.452;2023-07-09T06:35:45;9.20;;;3.92;;
54261;SDS011;40174;52.364;6.452;2023-07-09T06:38:13;9.60;;;4.82;;
54261;SDS011;40174;52.364;6.452;2023-07-09T06:40:40;11.43;;;4.63;;
54261;SDS011;40174;52.364;6.452;2023-07-09T06:43:06;11.05;;;5.05;;
54261;SDS011;40174;52.364;6.452;2023-07-09T06:45:37;12.48;;;5.53;;
54261;SDS011;40174;52.364;6.452;2023-07-09T06:48:04;10.55;;;4.80;;
54261;SDS011;40174;52.364;6.452;2023-07-09T06:50:36;14.98;;;5.65;;
54261;SDS011;40174;52.364;6.452;2023-07-09T06:53:03;10.93;;;5.00;;
54261;SDS011;40174;52.364;6.452;2023-07-09T06:55:29;12.07;;;4.90;;
54261;SDS011;40174;52.364;6.452;2023-07-09T06:57:56;11.05;;;5.30;;
54261;SDS011;40174;52.364;6.452;2023-07-09T07:00:23;11.82;;;4.57;;
54261;SDS011;40174;52.364;6.452;2023-07-09T07:02:50;12.20;;;4.50;;
54261;SDS011;40174;52.364;6.452;2023-07-09T07:05:16;11.20;;;4.70;;
54261;SDS011;40174;52.364;6.452;2023-07-09T07:07:45;10.02;;;5.18;;
54261;SDS011;40174;52.364;6.452;2023-07-09T07:10:12;9.50;;;4.72;;
54261;SDS011;40174;52.364;6.452;2023-07-09T07:12:43;10.15;;;5.32;;
54261;SDS011;40174;52.364;6.452;2023-07-09T07:15:11;11.80;;;5.15;;
54261;SDS011;40174;52.364;6.452;2023-07-09T07:17:39;11.30;;;4.57;;
54261;SDS011;40174;52.364;6.452;2023-07-09T07:20:07;8.35;;;4.00;;
54261;SDS011;40174;52.364;6.452;2023-07-09T07:22:34;10.95;;;4.38;;
54261;SDS011;40174;52.364;6.452;2023-07-09T07:25:03;9.48;;;4.47;;
54261;SDS011;40174;52.364;6.452;2023-07-09T07:27:30;10.05;;;4.70;;
54261;SDS011;40174;52.364;6.452;2023-07-09T07:29:57;9.75;;;4.65;;
54261;SDS011;40174;52.364;6.452;2023-07-09T07:32:24;9.23;;;4.63;;
54261;SDS011;40174;52.364;6.452;2023-07-09T07:34:50;11.25;;;4.18;;
54261;SDS011;40174;52.364;6.452;2023-07-09T07:37:19;10.60;;;4.45;;
54261;SDS011;40174;52.364;6.452;2023-07-09T07:39:46;10.48;;;4.40;;
54261;SDS011;40174;52.364;6.452;2023-07-09T07:42:14;11.82;;;5.38;;
54261;SDS011;40174;52.364;6.452;2023-07-09T07:44:41;10.10;;;4.13;;
54261;SDS011;40174;52.364;6.452;2023-07-09T07:47:07;9.45;;;4.45;;
54261;SDS011;40174;52.364;6.452;2023-07-09T07:49:34;11.95;;;4.15;;
54261;SDS011;40174;52.364;6.452;2023-07-09T07:52:00;8.20;;;4.07;;
54261;SDS011;40174;52.364;6.452;2023-07-09T07:54:28;12.52;;;4.50;;
54261;SDS011;40174;52.364;6.452;2023-07-09T07:56:56;9.48;;;4.20;;
54261;SDS011;40174;52.364;6.452;2023-07-09T07:59:24;10.75;;;4.53;;
54261;SDS011;40174;52.364;6.452;2023-07-09T08:01:51;9.90;;;4.03;;
54261;SDS011;40174;52.364;6.452;2023-07-09T08:04:17;10.30;;;3.97;;
54261;SDS011;40174;52.364;6.452;2023-07-09T08:06:44;9.43;;;4.30;;
54261;SDS011;40174;52.364;6.452;2023-07-09T08:09:11;10.27;;;3.85;;
54261;SDS011;40174;52.364;6.452;2023-07-09T08:11:38;10.27;;;4.05;;
54261;SDS011;40174;52.364;6.452;2023-07-09T08:14:05;9.50;;;3.85;;
54261;SDS011;40174;52.364;6.452;2023-07-09T08:16:33;10.00;;;3.80;;
54261;SDS011;40174;52.364;6.452;2023-07-09T08:18:59;8.60;;;4.10;;
54261;SDS011;40174;52.364;6.452;2023-07-09T08:21:26;7.13;;;3.15;;
54261;SDS011;40174;52.364;6.452;2023-07-09T08:23:53;10.65;;;3.90;;
54261;SDS011;40174;52.364;6.452;2023-07-09T08:26:19;10.63;;;3.53;;
54261;SDS011;40174;52.364;6.452;2023-07-09T08:28:46;8.45;;;4.05;;
54261;SDS011;40174;52.364;6.452;2023-07-09T08:31:13;8.27;;;3.55;;
54261;SDS011;40174;52.364;6.452;2023-07-09T08:33:41;7.47;;;3.40;;
54261;SDS011;40174;52.364;6.452;2023-07-09T08:36:07;8.40;;;3.97;;
54261;SDS011;40174;52.364;6.452;2023-07-09T08:38:34;7.65;;;3.33;;
54261;SDS011;40174;52.364;6.452;2023-07-09T08:41:02;8.80;;;3.67;;
54261;SDS011;40174;52.364;6.452;2023-07-09T08:43:36;8.70;;;3.63;;
54261;SDS011;40174;52.364;6.452;2023-07-09T08:46:15;6.65;;;2.83;;
54261;SDS011;40174;52.364;6.452;2023-07-09T08:48:47;8.30;;;3.83;;
54261;SDS011;40174;52.364;6.452;2023-07-09T08:51:18;8.40;;;3.60;;
54261;SDS011;40174;52.364;6.452;2023-07-09T08:53:52;7.78;;;3.63;;
54261;SDS011;40174;52.364;6.452;2023-07-09T08:56:23;8.10;;;3.40;;
54261;SDS011;40174;52.364;6.452;2023-07-09T08:58:52;7.82;;;3.55;;
54261;SDS011;40174;52.364;6.452;2023-07-09T09:03:58;7.95;;;3.35;;
54261;SDS011;40174;52.364;6.452;2023-07-09T09:06:28;8.88;;;3.10;;
54261;SDS011;40174;52.364;6.452;2023-07-09T09:08:58;11.00;;;3.15;;
54261;SDS011;40174;52.364;6.452;2023-07-09T09:11:34;7.78;;;3.65;;
54261;SDS011;40174;52.364;6.452;2023-07-09T09:14:17;8.52;;;3.60;;
54261;SDS011;40174;52.364;6.452;2023-07-09T09:16:52;11.00;;;4.07;;
54261;SDS011;40174;52.364;6.452;2023-07-09T09:19:22;9.45;;;3.67;;
54261;SDS011;40174;52.364;6.452;2023-07-09T09:21:54;8.65;;;3.40;;
54261;SDS011;40174;52.364;6.452;2023-07-09T09:24:27;7.47;;;3.40;;
54261;SDS011;40174;52.364;6.452;2023-07-09T09:27:01;13.65;;;3.38;;
54261;SDS011;40174;52.364;6.452;2023-07-09T09:29:27;8.70;;;3.50;;
54261;SDS011;40174;52.364;6.452;2023-07-09T09:31:55;9.65;;;3.78;;
54261;SDS011;40174;52.364;6.452;2023-07-09T09:34:25;7.70;;;3.35;;
54261;SDS011;40174;52.364;6.452;2023-07-09T09:36:53;7.75;;;3.25;;
54261;SDS011;40174;52.364;6.452;2023-07-09T09:39:22;7.68;;;3.65;;
54261;SDS011;40174;52.364;6.452;2023-07-09T09:41:51;8.32;;;3.55;;
54261;SDS011;40174;52.364;6.452;2023-07-09T09:44:21;8.25;;;3.80;;
54261;SDS011;40174;52.364;6.452;2023-07-09T09:46:52;8.60;;;3.58;;
54261;SDS011;40174;52.364;6.452;2023-07-09T09:49:22;7.38;;;3.10;;
54261;SDS011;40174;52.364;6.452;2023-07-09T09:51:50;10.18;;;3.95;;
54261;SDS011;40174;52.364;6.452;2023-07-09T09:54:20;7.95;;;3.50;;
54261;SDS011;40174;52.364;6.452;2023-07-09T09:56:50;6.93;;;3.42;;
54261;SDS011;40174;52.364;6.452;2023-07-09T09:59:19;8.55;;;3.35;;
54261;SDS011;40174;52.364;6.452;2023-07-09T10:01:55;8.20;;;2.85;;
54261;SDS011;40174;52.364;6.452;2023-07-09T10:04:23;7.68;;;3.30;;
54261;SDS011;40174;52.364;6.452;2023-07-09T10:06:53;8.35;;;3.33;;
54261;SDS011;40174;52.364;6.452;2023-07-09T10:09:25;8.35;;;3.83;;
54261;SDS011;40174;52.364;6.452;2023-07-09T10:12:01;7.22;;;3.38;;
54261;SDS011;40174;52.364;6.452;2023-07-09T10:14:37;8.05;;;3.10;;
54261;SDS011;40174;52.364;6.452;2023-07-09T10:17:14;8.00;;;2.65;;
54261;SDS011;40174;52.364;6.452;2023-07-09T10:19:52;7.65;;;3.13;;
54261;SDS011;40174;52.364;6.452;2023-07-09T10:22:37;8.38;;;3.28;;
54261;SDS011;40174;52.364;6.452;2023-07-09T10:25:12;6.97;;;3.03;;
54261;SDS011;40174;52.364;6.452;2023-07-09T10:27:55;6.57;;;3.05;;
54261;SDS011;40174;52.364;6.452;2023-07-09T10:30:38;7.50;;;3.05;;
54261;SDS011;40174;52.364;6.452;2023-07-09T10:33:15;7.28;;;3.08;;
54261;SDS011;40174;52.364;6.452;2023-07-09T10:35:49;8.18;;;3.10;;
54261;SDS011;40174;52.364;6.452;2023-07-09T10:38:25;8.93;;;3.38;;
54261;SDS011;40174;52.364;6.452;2023-07-09T10:41:00;6.22;;;3.05;;
54261;SDS011;40174;52.364;6.452;2023-07-09T10:43:33;7.43;;;2.83;;
54261;SDS011;40174;52.364;6.452;2023-07-09T10:46:05;8.55;;;3.10;;
54261;SDS011;40174;52.364;6.452;2023-07-09T10:48:37;6.97;;;3.08;;
54261;SDS011;40174;52.364;6.452;2023-07-09T10:51:10;6.70;;;2.97;;
54261;SDS011;40174;52.364;6.452;2023-07-09T10:53:45;6.97;;;2.95;;
54261;SDS011;40174;52.364;6.452;2023-07-09T10:56:16;6.93;;;2.97;;
54261;SDS011;40174;52.364;6.452;2023-07-09T10:58:46;6.28;;;3.10;;
54261;SDS011;40174;52.364;6.452;2023-07-09T11:01:21;7.05;;;3.50;;
54261;SDS011;40174;52.364;6.452;2023-07-09T11:03:56;9.20;;;3.60;;
54261;SDS011;40174;52.364;6.452;2023-07-09T11:06:31;6.68;;;3.25;;
54261;SDS011;40174;52.364;6.452;2023-07-09T11:09:06;5.80;;;2.92;;
54261;SDS011;40174;52.364;6.452;2023-07-09T11:11:42;6.93;;;2.80;;
54261;SDS011;40174;52.364;6.452;2023-07-09T11:14:17;8.18;;;3.28;;
54261;SDS011;40174;52.364;6.452;2023-07-09T11:16:54;10.43;;;3.53;;
54261;SDS011;40174;52.364;6.452;2023-07-09T11:19:23;7.57;;;3.17;;
54261;SDS011;40174;52.364;6.452;2023-07-09T11:22:03;8.60;;;3.00;;
54261;SDS011;40174;52.364;6.452;2023-07-09T11:24:35;8.68;;;3.63;;
54261;SDS011;40174;52.364;6.452;2023-07-09T11:27:19;7.88;;;3.13;;
54261;SDS011;40174;52.364;6.452;2023-07-09T11:29:48;8.10;;;3.05;;
54261;SDS011;40174;52.364;6.452;2023-07-09T11:32:23;8.07;;;3.33;;
54261;SDS011;40174;52.364;6.452;2023-07-09T11:34:52;9.50;;;3.22;;
54261;SDS011;40174;52.364;6.452;2023-07-09T11:37:20;6.43;;;2.85;;
54261;SDS011;40174;52.364;6.452;2023-07-09T11:39:52;5.50;;;2.92;;
54261;SDS011;40174;52.364;6.452;2023-07-09T11:42:30;7.20;;;2.85;;
54261;SDS011;40174;52.364;6.452;2023-07-09T11:45:00;6.43;;;3.17;;
54261;SDS011;40174;52.364;6.452;2023-07-09T11:47:33;8.68;;;3.17;;
54261;SDS011;40174;52.364;6.452;2023-07-09T11:50:04;7.20;;;3.35;;
54261;SDS011;40174;52.364;6.452;2023-07-09T11:52:41;7.22;;;2.80;;
54261;SDS011;40174;52.364;6.452;2023-07-09T11:55:19;6.18;;;3.00;;
54261;SDS011;40174;52.364;6.452;2023-07-09T11:57:52;5.68;;;2.50;;
54261;SDS011;40174;52.364;6.452;2023-07-09T12:00:19;8.90;;;2.97;;
54261;SDS011;40174;52.364;6.452;2023-07-09T12:02:46;6.13;;;2.97;;
54261;SDS011;40174;52.364;6.452;2023-07-09T12:05:13;6.97;;;2.85;;
54261;SDS011;40174;52.364;6.452;2023-07-09T12:07:44;7.22;;;2.90;;
54261;SDS011;40174;52.364;6.452;2023-07-09T12:10:15;7.00;;;3.28;;
54261;SDS011;40174;52.364;6.452;2023-07-09T12:12:47;6.85;;;2.60;;
54261;SDS011;40174;52.364;6.452;2023-07-09T12:15:17;4.78;;;2.30;;
54261;SDS011;40174;52.364;6.452;2023-07-09T12:17:55;6.95;;;2.50;;
54261;SDS011;40174;52.364;6.452;2023-07-09T12:20:23;8.65;;;2.83;;
54261;SDS011;40174;52.364;6.452;2023-07-09T12:22:50;4.40;;;2.30;;
54261;SDS011;40174;52.364;6.452;2023-07-09T12:25:20;5.78;;;2.50;;
54261;SDS011;40174;52.364;6.452;2023-07-09T12:27:49;5.75;;;2.72;;
54261;SDS011;40174;52.364;6.452;2023-07-09T12:30:16;10.38;;;3.30;;
54261;SDS011;40174;52.364;6.452;2023-07-09T12:32:43;8.27;;;3.03;;
54261;SDS011;40174;52.364;6.452;2023-07-09T12:35:12;5.28;;;2.50;;
54261;SDS011;40174;52.364;6.452;2023-07-09T12:37:39;4.13;;;2.17;;
54261;SDS011;40174;52.364;6.452;2023-07-09T12:40:11;6.70;;;2.47;;
54261;SDS011;40174;52.364;6.452;2023-07-09T12:42:42;5.65;;;2.50;;
54261;SDS011;40174;52.364;6.452;2023-07-09T12:45:14;5.03;;;2.38;;
54261;SDS011;40174;52.364;6.452;2023-07-09T12:47:43;7.93;;;2.65;;
54261;SDS011;40174;52.364;6.452;2023-07-09T12:50:18;6.07;;;2.45;;
54261;SDS011;40174;52.364;6.452;2023-07-09T12:52:48;7.30;;;2.97;;
54261;SDS011;40174;52.364;6.452;2023-07-09T12:55:18;5.53;;;2.40;;
54261;SDS011;40174;52.364;6.452;2023-07-09T12:57:48;6.63;;;2.15;;
54261;SDS011;40174;52.364;6.452;2023-07-09T13:00:16;6.45;;;2.70;;
54261;SDS011;40174;52.364;6.452;2023-07-09T13:02:44;6.30;;;2.70;;
54261;SDS011;40174;52.364;6.452;2023-07-09T13:05:17;7.43;;;2.50;;
54261;SDS011;40174;52.364;6.452;2023-07-09T13:07:46;7.85;;;2.80;;
54261;SDS011;40174;52.364;6.452;2023-07-09T13:10:21;5.43;;;2.78;;
54261;SDS011;40174;52.364;6.452;2023-07-09T13:12:53;5.22;;;2.30;;
54261;SDS011;40174;52.364;6.452;2023-07-09T13:15:23;5.53;;;2.53;;
54261;SDS011;40174;52.364;6.452;2023-07-09T13:17:56;7.88;;;2.97;;
54261;SDS011;40174;52.364;6.452;2023-07-09T13:20:24;9.55;;;2.67;;
54261;SDS011;40174;52.364;6.452;2023-07-09T13:22:51;5.68;;;2.40;;
54261;SDS011;40174;52.364;6.452;2023-07-09T13:25:18;5.95;;;2.63;;
54261;SDS011;40174;52.364;6.452;2023-07-09T13:27:44;6.07;;;2.60;;
54261;SDS011;40174;52.364;6.452;2023-07-09T13:30:12;9.77;;;2.65;;
54261;SDS011;40174;52.364;6.452;2023-07-09T13:32:39;6.68;;;2.80;;
54261;SDS011;40174;52.364;6.452;2023-07-09T13:35:09;7.32;;;2.80;;
54261;SDS011;40174;52.364;6.452;2023-07-09T13:37:39;8.88;;;3.00;;
54261;SDS011;40174;52.364;6.452;2023-07-09T13:40:07;6.72;;;2.90;;
54261;SDS011;40174;52.364;6.452;2023-07-09T13:42:37;8.38;;;2.88;;
54261;SDS011;40174;52.364;6.452;2023-07-09T13:45:09;5.82;;;2.53;;
54261;SDS011;40174;52.364;6.452;2023-07-09T13:47:45;6.07;;;2.63;;
54261;SDS011;40174;52.364;6.452;2023-07-09T13:50:12;5.95;;;2.70;;
54261;SDS011;40174;52.364;6.452;2023-07-09T13:52:41;6.43;;;2.47;;
54261;SDS011;40174;52.364;6.452;2023-07-09T13:55:10;5.97;;;2.90;;
54261;SDS011;40174;52.364;6.452;2023-07-09T13:57:43;7.60;;;3.13;;
54261;SDS011;40174;52.364;6.452;2023-07-09T14:00:10;7.80;;;2.95;;
54261;SDS011;40174;52.364;6.452;2023-07-09T14:02:39;6.55;;;2.78;;
54261;SDS011;40174;52.364;6.452;2023-07-09T14:05:08;6.82;;;3.10;;
54261;SDS011;40174;52.364;6.452;2023-07-09T14:07:38;5.07;;;2.40;;
54261;SDS011;40174;52.364;6.452;2023-07-09T14:10:07;5.55;;;2.80;;
54261;SDS011;40174;52.364;6.452;2023-07-09T14:12:37;4.63;;;2.42;;
54261;SDS011;40174;52.364;6.452;2023-07-09T14:15:09;6.45;;;2.83;;
54261;SDS011;40174;52.364;6.452;2023-07-09T14:17:41;7.00;;;2.83;;
54261;SDS011;40174;52.364;6.452;2023-07-09T14:20:10;8.50;;;2.88;;
54261;SDS011;40174;52.364;6.452;2023-07-09T14:22:38;6.57;;;2.80;;
54261;SDS011;40174;52.364;6.452;2023-07-09T14:25:06;5.50;;;2.70;;
54261;SDS011;40174;52.364;6.452;2023-07-09T14:27:40;6.43;;;2.83;;
54261;SDS011;40174;52.364;6.452;2023-07-09T14:30:08;6.90;;;2.85;;
54261;SDS011;40174;52.364;6.452;2023-07-09T14:32:41;5.60;;;2.88;;
54261;SDS011;40174;52.364;6.452;2023-07-09T14:35:10;8.88;;;2.90;;
54261;SDS011;40174;52.364;6.452;2023-07-09T14:37:39;10.18;;;2.97;;
54261;SDS011;40174;52.364;6.452;2023-07-09T14:40:06;6.40;;;3.00;;
54261;SDS011;40174;52.364;6.452;2023-07-09T14:42:34;7.15;;;2.90;;
54261;SDS011;40174;52.364;6.452;2023-07-09T14:45:02;4.97;;;2.55;;
54261;SDS011;40174;52.364;6.452;2023-07-09T14:47:29;5.75;;;2.88;;
54261;SDS011;40174;52.364;6.452;2023-07-09T14:49:57;5.35;;;2.78;;
54261;SDS011;40174;52.364;6.452;2023-07-09T14:52:24;6.82;;;3.17;;
54261;SDS011;40174;52.364;6.452;2023-07-09T14:54:50;7.50;;;3.17;;
54261;SDS011;40174;52.364;6.452;2023-07-09T14:57:18;8.95;;;3.13;;
54261;SDS011;40174;52.364;6.452;2023-07-09T14:59:46;6.30;;;2.95;;
54261;SDS011;40174;52.364;6.452;2023-07-09T15:02:21;6.82;;;2.70;;
54261;SDS011;40174;52.364;6.452;2023-07-09T15:04:49;8.27;;;3.22;;
54261;SDS011;40174;52.364;6.452;2023-07-09T15:07:17;7.30;;;3.15;;